F/V Kefeleg Ar Mor — FGIK — position and weather

sailwx.info

Track history (hours):
 
Tides and Currents Weather Stations Pressure Air Temp Water Temp Dewpoint Dewpoint Depression Visibility Wind Speed Wind Dir Waves Ship Positions

F/V Kefeleg Ar Mor

Last reported at 2018-Jun-19 02:29 UTC. Time now 2018-Jun-19 02:48 UTC.
Position N 47°09' W 002°38'.

Length 20 m.

Type: Fishing. MMSI: 227852000.

Date/timePositionNaut miles runAvg speedWind from/ knotsBaromVisibWave heightAir tempDewpointWater temp
2018-Jun-19 02:29N 47°09' W 002°38'4 9.3
2018-Jun-19 02:00N 47°13' W 002°36'5 9.8
2018-Jun-19 01:30N 47°18' W 002°34'4 7.2
2018-Jun-19 00:59N 47°21' W 002°31'0 0.0
2018-Jun-19 00:30N 47°21' W 002°31'0 0.0
2018-Jun-18 23:42N 47°21' W 002°31'0 0.6
2018-Jun-18 23:14N 47°21' W 002°31'2 9.4
2018-Jun-18 22:59N 47°20' W 002°34'5 9.0
2018-Jun-18 22:27N 47°18' W 002°41'5 9.3
2018-Jun-18 21:54N 47°16' W 002°48'18 9.4
2018-Jun-18 19:57N 47°10' W 003°13'22 5.0
2018-Jun-18 15:33N 47°03' W 003°44'4 1.0
2018-Jun-18 11:25N 46°60' W 003°39'2 2.9
2018-Jun-18 10:52N 47°01' W 003°41'1 3.8
2018-Jun-18 10:30N 47°02' W 003°42'4 3.8
2018-Jun-18 09:26N 47°04' W 003°47'2 3.7
2018-Jun-18 08:53N 47°05' W 003°45'2 3.5
2018-Jun-18 08:23N 47°04' W 003°42'1 3.5
2018-Jun-18 07:58N 47°03' W 003°42'1 1.9
2018-Jun-18 07:27N 47°02' W 003°42'2 3.3
2018-Jun-18 06:53N 47°03' W 003°45'1 3.8
2018-Jun-18 06:30N 47°04' W 003°45'1 2.7
2018-Jun-18 05:59N 47°05' W 003°44'3 3.5
2018-Jun-18 05:12N 47°04' W 003°40'1 3.6
2018-Jun-18 04:55N 47°03' W 003°39'2 3.5
2018-Jun-18 04:28N 47°02' W 003°37'2 3.3
2018-Jun-18 03:47N 46°60' W 003°37'1 2.1
2018-Jun-18 03:27N 46°60' W 003°37'1 1.4
2018-Jun-18 03:00N 46°60' W 003°36'1 0.7
2018-Jun-18 01:57N 46°59' W 003°35'6 0.7
2018-Jun-17 17:29N 47°03' W 003°42'2 4.0
2018-Jun-17 16:58N 47°05' W 003°43'2 0.2
2018-Jun-17 06:53N 47°02' W 003°42'2 4.2
2018-Jun-17 06:27N 47°04' W 003°42'2 4.0
2018-Jun-17 05:52N 47°07' W 003°43'2 3.9
2018-Jun-17 05:15N 47°09' W 003°43'1 3.7
2018-Jun-17 04:58N 47°10' W 003°43'9 3.5
2018-Jun-17 02:31N 47°14' W 003°32'0 8.6
2018-Jun-17 02:29N 47°14' W 003°32'7 8.8
2018-Jun-17 01:45N 47°14' W 003°22'3 9.1
2018-Jun-17 01:28N 47°15' W 003°18'5 9.4
2018-Jun-17 00:56N 47°15' W 003°11'4 9.0
2018-Jun-17 00:30N 47°16' W 003°05'8 9.6
2018-Jun-16 23:42N 47°17' W 002°54'210.1
2018-Jun-16 23:29N 47°18' W 002°51'510.0
2018-Jun-16 23:00N 47°19' W 002°44'5 9.7
2018-Jun-16 22:29N 47°20' W 002°37'4 8.1
2018-Jun-16 22:00N 47°21' W 002°31'0 0.1
2018-Jun-16 20:56N 47°21' W 002°31'0 0.0
2018-Jun-16 19:50N 47°21' W 002°31'3 8.8
2018-Jun-16 19:30N 47°20' W 002°35'5 9.4
2018-Jun-16 18:58N 47°18' W 002°42'6 9.8
2018-Jun-16 18:23N 47°16' W 002°50'11 9.9
2018-Jun-16 17:16N 47°12' W 003°05'310.0
2018-Jun-16 17:00N 47°11' W 003°08'26 2.6
2018-Jun-16 07:05N 47°04' W 003°45'0 4.1
2018-Jun-16 06:58N 47°04' W 003°45'6 3.4
2018-Jun-16 05:09N 47°10' W 003°42'1 3.7
2018-Jun-16 04:56N 47°11' W 003°41'2 3.6
2018-Jun-16 04:29N 47°11' W 003°39'2 3.7
2018-Jun-16 04:00N 47°12' W 003°37'2 4.1
2018-Jun-16 03:30N 47°13' W 003°34'4 9.2
2018-Jun-16 03:00N 47°17' W 003°29'5 9.0
2018-Jun-16 02:30N 47°20' W 003°24'5 9.0
2018-Jun-16 02:00N 47°23' W 003°20'4 7.9
2018-Jun-16 01:30N 47°25' W 003°15'4 7.9
2018-Jun-16 01:01N 47°27' W 003°10'2 4.7
2018-Jun-16 00:30N 47°29' W 003°07'0 0.2
2018-Jun-16 00:00N 47°29' W 003°07'0 0.2
2018-Jun-15 23:30N 47°29' W 003°07'0 0.0
2018-Jun-15 23:01N 47°29' W 003°07'0 0.0
2018-Jun-15 22:30N 47°29' W 003°07'0 0.0
2018-Jun-15 22:00N 47°29' W 003°07'0 0.0
2018-Jun-15 21:31N 47°29' W 003°07'1 2.0
2018-Jun-15 21:00N 47°28' W 003°08'4 8.6
2018-Jun-15 20:30N 47°25' W 003°13'4 8.2
2018-Jun-15 20:00N 47°23' W 003°18'25 2.4
2018-Jun-15 09:13N 47°06' W 003°46'4 3.4
2018-Jun-15 08:08N 47°03' W 003°41'2 2.1
2018-Jun-15 07:16N 47°02' W 003°42'1 3.3
2018-Jun-15 06:54N 47°01' W 003°44'2 3.5
2018-Jun-15 06:25N 47°03' W 003°45'2 4.3
2018-Jun-15 05:58N 47°05' W 003°45'2 4.1
2018-Jun-15 05:30N 47°07' W 003°45'4 4.0
2018-Jun-15 04:29N 47°11' W 003°44'2 3.8
2018-Jun-15 03:53N 47°13' W 003°43'1 1.5
2018-Jun-15 03:20N 47°14' W 003°43'1 0.7
2018-Jun-15 01:43N 47°14' W 003°44'12 0.6
2018-Jun-14 07:41N 47°03' W 003°39'0 2.4
2018-Jun-14 07:29N 47°03' W 003°39'3 1.9
2018-Jun-14 05:59N 47°03' W 003°43'2 3.9
2018-Jun-14 05:27N 47°05' W 003°43'2 3.9
2018-Jun-14 04:53N 47°08' W 003°43'1 3.9
2018-Jun-14 04:30N 47°09' W 003°43'3 4.2
2018-Jun-14 03:49N 47°12' W 003°44'0 1.2
2018-Jun-14 03:25N 47°12' W 003°44'4 8.4
2018-Jun-14 02:59N 47°14' W 003°40'5 9.2
2018-Jun-14 02:29N 47°17' W 003°34'4 9.0
2018-Jun-14 02:00N 47°19' W 003°29'5 9.0
2018-Jun-14 01:30N 47°22' W 003°23'4 8.7
2018-Jun-14 01:00N 47°24' W 003°18'4 7.9
2018-Jun-14 00:31N 47°26' W 003°13'4 7.9
2018-Jun-14 00:01N 47°28' W 003°08'1 1.7
2018-Jun-13 23:30N 47°29' W 003°07'0 0.1
2018-Jun-13 23:00N 47°29' W 003°07'1 1.3
2018-Jun-13 22:30N 47°28' W 003°08'5 9.4
2018-Jun-13 22:00N 47°25' W 003°13'510.3
2018-Jun-13 21:30N 47°22' W 003°19'5 9.4
2018-Jun-13 20:59N 47°19' W 003°25'22 3.1
2018-Jun-13 14:02N 47°02' W 003°46'1 2.8
2018-Jun-13 13:49N 47°03' W 003°46'3 1.4
2018-Jun-13 11:46N 47°03' W 003°42'1 0.1
2018-Jun-13 06:53N 47°03' W 003°43'1 3.2
2018-Jun-13 06:29N 47°04' W 003°43'2 3.9
2018-Jun-13 05:59N 47°06' W 003°43'3 3.5
2018-Jun-13 05:12N 47°08' W 003°45'2 4.0
2018-Jun-13 04:46N 47°10' W 003°45'1 4.0
2018-Jun-13 04:30N 47°11' W 003°44'2 4.0
2018-Jun-13 04:00N 47°13' W 003°44'2 1.6
2018-Jun-13 03:02N 47°15' W 003°44'0 4.9
2018-Jun-13 03:00N 47°15' W 003°44'1 1.5
2018-Jun-13 02:07N 47°14' W 003°46'1 2.5
2018-Jun-13 01:31N 47°14' W 003°48'0 2.5
2018-Jun-13 01:31N 47°14' W 003°48'0 0.8
2018-Jun-13 01:00N 47°15' W 003°48'2 3.1
2018-Jun-13 00:26N 47°14' W 003°45'2 4.0
2018-Jun-13 00:00N 47°12' W 003°45'2 2.3
2018-Jun-12 23:09N 47°11' W 003°47'3 3.6
2018-Jun-12 22:15N 47°14' W 003°48'1 3.4
2018-Jun-12 21:59N 47°15' W 003°47'48 2.2
2018-Jun-11 23:45N 47°20' W 002°37'3 9.4
2018-Jun-11 23:24N 47°19' W 002°42'4 9.3
2018-Jun-11 22:58N 47°18' W 002°48'5 9.9
2018-Jun-11 22:28N 47°18' W 002°55'4 9.5
2018-Jun-11 22:00N 47°17' W 003°01'610.2
2018-Jun-11 21:27N 47°16' W 003°10'4 9.4
2018-Jun-11 20:58N 47°15' W 003°16'4 9.2
2018-Jun-11 20:30N 47°15' W 003°22'16 1.0
2018-Jun-11 04:18N 47°11' W 003°44'2 4.3
2018-Jun-11 03:47N 47°13' W 003°44'35 1.5
2018-Jun-10 05:02N 47°12' W 002°52'110.2
2018-Jun-10 04:58N 47°13' W 002°51'510.3
2018-Jun-10 04:28N 47°16' W 002°45'710.1
2018-Jun-10 03:46N 47°19' W 002°36'3 9.7
2018-Jun-10 03:27N 47°20' W 002°32'1 1.4
2018-Jun-10 02:58N 47°21' W 002°31'0 0.0
2018-Jun-10 00:11N 47°21' W 002°31'2 8.7
2018-Jun-09 23:57N 47°20' W 002°33'4 9.7
2018-Jun-09 23:30N 47°18' W 002°40'27 9.6
2018-Jun-09 20:40N 47°03' W 003°12'2 9.9
2018-Jun-09 20:28N 47°02' W 003°15'14 1.9
2018-Jun-09 12:46N 46°52' W 003°30'1 3.8
2018-Jun-09 12:24N 46°53' W 003°28'2 0.3
2018-Jun-09 03:39N 46°55' W 003°27'0 0.9
2018-Jun-09 03:30N 46°55' W 003°27'1 2.0
2018-Jun-09 03:00N 46°54' W 003°28'  
Track history (hours):
 
Tides and Currents Weather Stations Pressure Air Temp Water Temp Dewpoint Dewpoint Depression Visibility Wind Speed Wind Dir Waves Ship Positions

F/V Kefeleg Ar Mor

Last reported at 2018-Jun-19 02:29 UTC. Time now 2018-Jun-19 02:48 UTC.
Position N 47°09' W 002°38'.

Length 20 m.

Type: Fishing. MMSI: 227852000.

Date/timePositionNaut miles runAvg speedWind from/ knotsBaromVisibWave heightAir tempDewpointWater temp
2018-Jun-19 02:29N 47°09' W 002°38'4 9.3
2018-Jun-19 02:00N 47°13' W 002°36'5 9.8
2018-Jun-19 01:30N 47°18' W 002°34'4 7.2
2018-Jun-19 00:59N 47°21' W 002°31'0 0.0
2018-Jun-19 00:30N 47°21' W 002°31'0 0.0
2018-Jun-18 23:42N 47°21' W 002°31'0 0.6
2018-Jun-18 23:14N 47°21' W 002°31'2 9.4
2018-Jun-18 22:59N 47°20' W 002°34'5 9.0
2018-Jun-18 22:27N 47°18' W 002°41'5 9.3
2018-Jun-18 21:54N 47°16' W 002°48'18 9.4
2018-Jun-18 19:57N 47°10' W 003°13'22 5.0
2018-Jun-18 15:33N 47°03' W 003°44'4 1.0
2018-Jun-18 11:25N 46°60' W 003°39'2 2.9
2018-Jun-18 10:52N 47°01' W 003°41'1 3.8
2018-Jun-18 10:30N 47°02' W 003°42'4 3.8
2018-Jun-18 09:26N 47°04' W 003°47'2 3.7
2018-Jun-18 08:53N 47°05' W 003°45'2 3.5
2018-Jun-18 08:23N 47°04' W 003°42'1 3.5
2018-Jun-18 07:58N 47°03' W 003°42'1 1.9
2018-Jun-18 07:27N 47°02' W 003°42'2 3.3
2018-Jun-18 06:53N 47°03' W 003°45'1 3.8
2018-Jun-18 06:30N 47°04' W 003°45'1 2.7
2018-Jun-18 05:59N 47°05' W 003°44'3 3.5
2018-Jun-18 05:12N 47°04' W 003°40'1 3.6
2018-Jun-18 04:55N 47°03' W 003°39'2 3.5
2018-Jun-18 04:28N 47°02' W 003°37'2 3.3
2018-Jun-18 03:47N 46°60' W 003°37'1 2.1
2018-Jun-18 03:27N 46°60' W 003°37'1 1.4
2018-Jun-18 03:00N 46°60' W 003°36'1 0.7
2018-Jun-18 01:57N 46°59' W 003°35'6 0.7
2018-Jun-17 17:29N 47°03' W 003°42'2 4.0
2018-Jun-17 16:58N 47°05' W 003°43'2 0.2
2018-Jun-17 06:53N 47°02' W 003°42'2 4.2
2018-Jun-17 06:27N 47°04' W 003°42'2 4.0
2018-Jun-17 05:52N 47°07' W 003°43'2 3.9
2018-Jun-17 05:15N 47°09' W 003°43'1 3.7
2018-Jun-17 04:58N 47°10' W 003°43'9 3.5
2018-Jun-17 02:31N 47°14' W 003°32'0 8.6
2018-Jun-17 02:29N 47°14' W 003°32'7 8.8
2018-Jun-17 01:45N 47°14' W 003°22'3 9.1
2018-Jun-17 01:28N 47°15' W 003°18'5 9.4
2018-Jun-17 00:56N 47°15' W 003°11'4 9.0
2018-Jun-17 00:30N 47°16' W 003°05'8 9.6
2018-Jun-16 23:42N 47°17' W 002°54'210.1
2018-Jun-16 23:29N 47°18' W 002°51'510.0
2018-Jun-16 23:00N 47°19' W 002°44'5 9.7
2018-Jun-16 22:29N 47°20' W 002°37'4 8.1
2018-Jun-16 22:00N 47°21' W 002°31'0 0.1
2018-Jun-16 20:56N 47°21' W 002°31'0 0.0
2018-Jun-16 19:50N 47°21' W 002°31'3 8.8
2018-Jun-16 19:30N 47°20' W 002°35'5 9.4
2018-Jun-16 18:58N 47°18' W 002°42'6 9.8
2018-Jun-16 18:23N 47°16' W 002°50'11 9.9
2018-Jun-16 17:16N 47°12' W 003°05'310.0
2018-Jun-16 17:00N 47°11' W 003°08'26 2.6
2018-Jun-16 07:05N 47°04' W 003°45'0 4.1
2018-Jun-16 06:58N 47°04' W 003°45'6 3.4
2018-Jun-16 05:09N 47°10' W 003°42'1 3.7
2018-Jun-16 04:56N 47°11' W 003°41'2 3.6
2018-Jun-16 04:29N 47°11' W 003°39'2 3.7
2018-Jun-16 04:00N 47°12' W 003°37'2 4.1
2018-Jun-16 03:30N 47°13' W 003°34'4 9.2
2018-Jun-16 03:00N 47°17' W 003°29'5 9.0
2018-Jun-16 02:30N 47°20' W 003°24'5 9.0
2018-Jun-16 02:00N 47°23' W 003°20'4 7.9
2018-Jun-16 01:30N 47°25' W 003°15'4 7.9
2018-Jun-16 01:01N 47°27' W 003°10'2 4.7
2018-Jun-16 00:30N 47°29' W 003°07'0 0.2
2018-Jun-16 00:00N 47°29' W 003°07'0 0.2
2018-Jun-15 23:30N 47°29' W 003°07'0 0.0
2018-Jun-15 23:01N 47°29' W 003°07'0 0.0
2018-Jun-15 22:30N 47°29' W 003°07'0 0.0
2018-Jun-15 22:00N 47°29' W 003°07'0 0.0
2018-Jun-15 21:31N 47°29' W 003°07'1 2.0
2018-Jun-15 21:00N 47°28' W 003°08'4 8.6
2018-Jun-15 20:30N 47°25' W 003°13'4 8.2
2018-Jun-15 20:00N 47°23' W 003°18'25 2.4
2018-Jun-15 09:13N 47°06' W 003°46'4 3.4
2018-Jun-15 08:08N 47°03' W 003°41'2 2.1
2018-Jun-15 07:16N 47°02' W 003°42'1 3.3
2018-Jun-15 06:54N 47°01' W 003°44'2 3.5
2018-Jun-15 06:25N 47°03' W 003°45'2 4.3
2018-Jun-15 05:58N 47°05' W 003°45'2 4.1
2018-Jun-15 05:30N 47°07' W 003°45'4 4.0
2018-Jun-15 04:29N 47°11' W 003°44'2 3.8
2018-Jun-15 03:53N 47°13' W 003°43'1 1.5
2018-Jun-15 03:20N 47°14' W 003°43'1 0.7
2018-Jun-15 01:43N 47°14' W 003°44'12 0.6
2018-Jun-14 07:41N 47°03' W 003°39'0 2.4
2018-Jun-14 07:29N 47°03' W 003°39'3 1.9
2018-Jun-14 05:59N 47°03' W 003°43'2 3.9
2018-Jun-14 05:27N 47°05' W 003°43'2 3.9
2018-Jun-14 04:53N 47°08' W 003°43'1 3.9
2018-Jun-14 04:30N 47°09' W 003°43'3 4.2
2018-Jun-14 03:49N 47°12' W 003°44'0 1.2
2018-Jun-14 03:25N 47°12' W 003°44'4 8.4
2018-Jun-14 02:59N 47°14' W 003°40'5 9.2
2018-Jun-14 02:29N 47°17' W 003°34'4 9.0
2018-Jun-14 02:00N 47°19' W 003°29'5 9.0
2018-Jun-14 01:30N 47°22' W 003°23'4 8.7
2018-Jun-14 01:00N 47°24' W 003°18'4 7.9
2018-Jun-14 00:31N 47°26' W 003°13'4 7.9
2018-Jun-14 00:01N 47°28' W 003°08'1 1.7
2018-Jun-13 23:30N 47°29' W 003°07'0 0.1
2018-Jun-13 23:00N 47°29' W 003°07'1 1.3
2018-Jun-13 22:30N 47°28' W 003°08'5 9.4
2018-Jun-13 22:00N 47°25' W 003°13'510.3
2018-Jun-13 21:30N 47°22' W 003°19'5 9.4
2018-Jun-13 20:59N 47°19' W 003°25'22 3.1
2018-Jun-13 14:02N 47°02' W 003°46'1 2.8
2018-Jun-13 13:49N 47°03' W 003°46'3 1.4
2018-Jun-13 11:46N 47°03' W 003°42'1 0.1
2018-Jun-13 06:53N 47°03' W 003°43'1 3.2
2018-Jun-13 06:29N 47°04' W 003°43'2 3.9
2018-Jun-13 05:59N 47°06' W 003°43'3 3.5
2018-Jun-13 05:12N 47°08' W 003°45'2 4.0
2018-Jun-13 04:46N 47°10' W 003°45'1 4.0
2018-Jun-13 04:30N 47°11' W 003°44'2 4.0
2018-Jun-13 04:00N 47°13' W 003°44'2 1.6
2018-Jun-13 03:02N 47°15' W 003°44'0 4.9
2018-Jun-13 03:00N 47°15' W 003°44'1 1.5
2018-Jun-13 02:07N 47°14' W 003°46'1 2.5
2018-Jun-13 01:31N 47°14' W 003°48'0 2.5
2018-Jun-13 01:31N 47°14' W 003°48'0 0.8
2018-Jun-13 01:00N 47°15' W 003°48'2 3.1
2018-Jun-13 00:26N 47°14' W 003°45'2 4.0
2018-Jun-13 00:00N 47°12' W 003°45'2 2.3
2018-Jun-12 23:09N 47°11' W 003°47'3 3.6
2018-Jun-12 22:15N 47°14' W 003°48'1 3.4
2018-Jun-12 21:59N 47°15' W 003°47'48 2.2
2018-Jun-11 23:45N 47°20' W 002°37'3 9.4
2018-Jun-11 23:24N 47°19' W 002°42'4 9.3
2018-Jun-11 22:58N 47°18' W 002°48'5 9.9
2018-Jun-11 22:28N 47°18' W 002°55'4 9.5
2018-Jun-11 22:00N 47°17' W 003°01'610.2
2018-Jun-11 21:27N 47°16' W 003°10'4 9.4
2018-Jun-11 20:58N 47°15' W 003°16'4 9.2
2018-Jun-11 20:30N 47°15' W 003°22'16 1.0
2018-Jun-11 04:18N 47°11' W 003°44'2 4.3
2018-Jun-11 03:47N 47°13' W 003°44'35 1.5
2018-Jun-10 05:02N 47°12' W 002°52'110.2
2018-Jun-10 04:58N 47°13' W 002°51'510.3
2018-Jun-10 04:28N 47°16' W 002°45'710.1
2018-Jun-10 03:46N 47°19' W 002°36'3 9.7
2018-Jun-10 03:27N 47°20' W 002°32'1 1.4
2018-Jun-10 02:58N 47°21' W 002°31'0 0.0
2018-Jun-10 00:11N 47°21' W 002°31'2 8.7
2018-Jun-09 23:57N 47°20' W 002°33'4 9.7
2018-Jun-09 23:30N 47°18' W 002°40'27 9.6
2018-Jun-09 20:40N 47°03' W 003°12'2 9.9
2018-Jun-09 20:28N 47°02' W 003°15'14 1.9
2018-Jun-09 12:46N 46°52' W 003°30'1 3.8
2018-Jun-09 12:24N 46°53' W 003°28'2 0.3
2018-Jun-09 03:39N 46°55' W 003°27'0 0.9
2018-Jun-09 03:30N 46°55' W 003°27'1 2.0
2018-Jun-09 03:00N 46°54' W 003°28'  

Dump ship's entire track history